Time;durP1;ratioP1;P1;durP2;ratioP2;P2;SDS_P1;SDS_P2;PMS_P1;PMS_P2;Temp;Humidity;BMP_temperature;BMP_pressure;BME280_temperature;BME280_humidity;BME280_pressure;Samples;Min_cycle;Max_cycle;Signal;HPM_P1;HPM_P2
2021/11/21 00:00:13;;;;;;;;;;;;;;;;;;1869415;29;7361;-65
2021/11/21 00:01:11;;;;;;;;;;;;;;;;;;1875234;28;7006;-65
2021/11/21 00:02:09;;;;;;;;;;;;;;;;;;1877396;28;7036;-65
2021/11/21 00:03:08;;;;;;;;;;;;;;;;;;1876530;28;7002;-65
2021/11/21 00:04:05;;;;;;;;;;;;;;;;;;1876498;28;7006;-64
2021/11/21 00:05:04;;;;;;;;;;;;;;;;;;1876462;28;8032;-65
2021/11/21 00:06:01;;;;;;;;;;;;;;;;;;1876632;28;7025;-65
2021/11/21 00:06:58;;;;;;;;;;;;;;;;;;1875849;28;7290;-66
2021/11/21 00:07:56;;;;;;;;;;;;;;;;;;1870544;28;7125;-65
2021/11/21 00:08:54;;;;;;;;;;;;;;;;;;1874364;28;8978;-65
2021/11/21 00:09:51;;;;;;;;;;;;;;;;;;1876800;28;7194;-65
2021/11/21 00:10:49;;;;;;;;;;;;;;;;;;1876380;28;7014;-64
2021/11/21 00:11:46;;;;;;;;;;;;;;;;;;1876413;28;7535;-65
2021/11/21 00:12:44;;;;;;;;;;;;;;;;;;1875694;28;7002;-65
2021/11/21 00:13:42;;;;;;;;;;;;;;;;;;1876284;28;7038;-65
2021/11/21 00:14:39;;;;;;;;;;;;;;;;;;1876106;28;7010;-64
2021/11/21 00:15:41;;;;;;;;;;;;;;;;;;1876528;28;7042;-65
2021/11/21 00:16:39;;;;;;;;;;;;;;;;;;1872531;28;7014;-65
2021/11/21 00:17:36;;;;;;;;;;;;;;;;;;1876547;28;7002;-63
2021/11/21 00:18:34;;;;;;;;;;;;;;;;;;1876442;28;8124;-64
2021/11/21 00:19:31;;;;;;;;;;;;;;;;;;1875515;28;7066;-65
2021/11/21 00:20:29;;;;;;;;;;;;;;;;;;1876262;28;7101;-64
2021/11/21 00:21:26;;;;;;;;;;;;;;;;;;1876440;28;7101;-65
2021/11/21 00:22:25;;;;;;;;;;;;;;;;;;1876759;28;7006;-64
2021/11/21 00:23:23;;;;;;;;;;;;;;;;;;1876837;28;7002;-64
2021/11/21 00:24:21;;;;;;;;;;;;;;;;;;1875583;28;7093;-65
2021/11/21 00:25:19;;;;;;;;;;;;;;;;;;1876544;28;7006;-65
2021/11/21 00:26:16;;;;;;;;;;;;;;;;;;1876124;28;7005;-65
2021/11/21 00:27:15;;;;;;;;;;;;;;;;;;1875356;28;7093;-65
2021/11/21 00:28:12;;;;;;;;;;;;;;;;;;1869104;29;7385;-65
2021/11/21 00:29:09;;;;;;;;;;;;;;;;;;1876242;28;7006;-65
2021/11/21 00:30:07;;;;;;;;;;;;;;;;;;1876803;28;7346;-65
2021/11/21 00:31:04;;;;;;;;;;;;;;;;;;1875763;28;7010;-64
2021/11/21 00:32:02;;;;;;;;;;;;;;;;;;1876083;28;7100;-65
2021/11/21 00:33:00;;;;;;;;;;;;;;;;;;1876342;28;7046;-64
2021/11/21 00:33:58;;;;;;;;;;;;;;;;;;1876295;28;7013;-65
2021/11/21 00:34:55;;;;;;;;;;;;;;;;;;1875607;28;7030;-65
2021/11/21 00:35:53;;;;;;;;;;;;;;;;;;1875678;28;7046;-63
2021/11/21 00:36:50;;;;;;;;;;;;;;;;;;1876160;28;7018;-64
2021/11/21 00:37:48;;;;;;;;;;;;;;;;;;1875937;28;8213;-65
2021/11/21 00:38:45;;;;;;;;;;;;;;;;;;1875822;28;7010;-64
2021/11/21 00:39:43;;;;;;;;;;;;;;;;;;1876255;28;7010;-65
2021/11/21 00:40:41;;;;;;;;;;;;;;;;;;1875717;28;7013;-64
2021/11/21 00:41:38;;;;;;;;;;;;;;;;;;1876076;28;7006;-65
2021/11/21 00:42:36;;;;;;;;;;;;;;;;;;1875827;28;7046;-65
2021/11/21 00:43:34;;;;;;;;;;;;;;;;;;1876506;28;7014;-65
2021/11/21 00:44:31;;;;;;;;;;;;;;;;;;1875753;28;7372;-65
2021/11/21 00:45:29;;;;;;;;;;;;;;;;;;1875861;28;7030;-64
2021/11/21 00:46:27;;;;;;;;;;;;;;;;;;1875901;28;7010;-65
2021/11/21 00:47:24;;;;;;;;;;;;;;;;;;1875974;28;7328;-64
2021/11/21 00:48:22;;;;;;;;;;;;;;;;;;1875745;28;7092;-65
2021/11/21 00:49:20;;;;;;;;;;;;;;;;;;1875175;28;7027;-65
2021/11/21 00:50:24;;;;;;;;;;;;;;;;;;1876672;28;8057;-65
2021/11/21 00:51:21;;;;;;;;;;;;;;;;;;1870075;28;7006;-64
2021/11/21 00:52:20;;;;;;;;;;;;;;;;;;1876339;28;7021;-65
2021/11/21 00:53:17;;;;;;;;;;;;;;;;;;1876053;28;9012;-65
2021/11/21 00:54:25;;;;;;;;;;;;;;;;;;1869120;29;7006;-65
2021/11/21 00:55:33;;;;;;;;;;;;;;;;;;1869435;28;7096;-65
2021/11/21 00:56:30;;;;;;;;;;;;;;;;;;1875631;28;7153;-64
2021/11/21 00:57:28;;;;;;;;;;;;;;;;;;1876562;28;7096;-65
2021/11/21 00:58:25;;;;;;;;;;;;;;;;;;1876024;28;7138;-66
2021/11/21 00:59:24;;;;;;;;;;;;;;;;;;1876105;28;7097;-65
2021/11/21 01:00:21;;;;;;;;;;;;;;;;;;1876230;28;7026;-65
2021/11/21 01:01:19;;;;;;;;;;;;;;;;;;1875856;28;7009;-64
2021/11/21 01:02:18;;;;;;;;;;;;;;;;;;1876167;28;7006;-66
2021/11/21 01:03:18;;;;;;;;;;;;;;;;;;1875875;28;7010;-65
2021/11/21 01:04:16;;;;;;;;;;;;;;;;;;1875553;28;8278;-64
2021/11/21 01:05:14;;;;;;;;;;;;;;;;;;1868727;29;7002;-64
2021/11/21 01:06:11;;;;;;;;;;;;;;;;;;1875640;28;7097;-65
2021/11/21 01:07:11;;;;;;;;;;;;;;;;;;1876269;28;8036;-65
2021/11/21 01:08:09;;;;;;;;;;;;;;;;;;1876298;28;7155;-65
2021/11/21 01:09:06;;;;;;;;;;;;;;;;;;1875669;28;7598;-65
2021/11/21 01:10:06;;;;;;;;;;;;;;;;;;1875554;28;7106;-66
2021/11/21 01:11:05;;;;;;;;;;;;;;;;;;1876040;28;7037;-65
2021/11/21 01:12:02;;;;;;;;;;;;;;;;;;1876077;28;8410;-64
2021/11/21 01:13:01;;;;;;;;;;;;;;;;;;1875484;28;7117;-64
2021/11/21 01:13:58;;;;;;;;;;;;;;;;;;1876110;28;7063;-65
2021/11/21 01:14:55;;;;;;;;;;;;;;;;;;1876188;28;7101;-65
2021/11/21 01:15:53;;;;;;;;;;;;;;;;;;1876712;28;9884;-65
2021/11/21 01:16:51;;;;;;;;;;;;;;;;;;1876037;28;8006;-65
2021/11/21 01:17:50;;;;;;;;;;;;;;;;;;1875727;28;7014;-64
2021/11/21 01:18:47;;;;;;;;;;;;;;;;;;1876192;28;7006;-65
2021/11/21 01:19:44;;;;;;;;;;;;;;;;;;1875872;28;7096;-66
2021/11/21 01:20:42;;;;;;;;;;;;;;;;;;1875971;28;7321;-65
2021/11/21 01:21:40;;;;;;;;;;;;;;;;;;1876146;28;7013;-65
2021/11/21 01:22:38;;;;;;;;;;;;;;;;;;1875382;28;7305;-65
2021/11/21 01:23:36;;;;;;;;;;;;;;;;;;1876824;28;7089;-66
2021/11/21 01:24:33;;;;;;;;;;;;;;;;;;1883231;28;7093;-64
2021/11/21 01:25:30;;;;;;;;;;;;;;;;;;1883025;28;7002;-65
2021/11/21 01:26:28;;;;;;;;;;;;;;;;;;1883286;28;7117;-64
2021/11/21 01:27:26;;;;;;;;;;;;;;;;;;1883352;28;7006;-65
2021/11/21 01:28:23;;;;;;;;;;;;;;;;;;1883227;28;7113;-64
2021/11/21 01:29:21;;;;;;;;;;;;;;;;;;1883757;28;7042;-65
2021/11/21 01:30:22;;;;;;;;;;;;;;;;;;1882807;28;7050;-65
2021/11/21 01:31:20;;;;;;;;;;;;;;;;;;1881816;28;7002;-64
2021/11/21 01:32:17;;;;;;;;;;;;;;;;;;1875764;28;7136;-64
2021/11/21 01:33:16;;;;;;;;;;;;;;;;;;1880742;28;7122;-65
2021/11/21 01:34:16;;;;;;;;;;;;;;;;;;1881903;28;7014;-66
2021/11/21 01:35:14;;;;;;;;;;;;;;;;;;1874893;28;7101;-65
2021/11/21 01:36:12;;;;;;;;;;;;;;;;;;1868587;29;7252;-65
2021/11/21 01:37:09;;;;;;;;;;;;;;;;;;1875648;28;7025;-64
2021/11/21 01:38:07;;;;;;;;;;;;;;;;;;1874452;28;7006;-65
2021/11/21 01:39:05;;;;;;;;;;;;;;;;;;1875671;28;7046;-65
2021/11/21 01:40:03;;;;;;;;;;;;;;;;;;1875234;28;7101;-65
2021/11/21 01:41:01;;;;;;;;;;;;;;;;;;1873891;28;7122;-64
2021/11/21 01:41:59;;;;;;;;;;;;;;;;;;1875387;28;8205;-65
2021/11/21 01:42:57;;;;;;;;;;;;;;;;;;1875070;28;7042;-64
2021/11/21 01:43:55;;;;;;;;;;;;;;;;;;1875466;28;7010;-64
2021/11/21 01:44:52;;;;;;;;;;;;;;;;;;1875677;28;7005;-64
2021/11/21 01:45:50;;;;;;;;;;;;;;;;;;1875498;28;7006;-64
2021/11/21 01:46:51;;;;;;;;;;;;;;;;;;1875841;28;7026;-65
2021/11/21 01:47:48;;;;;;;;;;;;;;;;;;1875179;28;7093;-65
2021/11/21 01:48:45;;;;;;;;;;;;;;;;;;1874743;28;7010;-64
2021/11/21 01:49:43;;;;;;;;;;;;;;;;;;1875331;28;7042;-65
2021/11/21 01:50:43;;;;;;;;;;;;;;;;;;1875872;28;7042;-65
2021/11/21 01:51:40;;;;;;;;;;;;;;;;;;1876313;28;7046;-66
2021/11/21 01:52:38;;;;;;;;;;;;;;;;;;1875947;28;7043;-66
2021/11/21 01:53:36;;;;;;;;;;;;;;;;;;1875904;28;7101;-65
2021/11/21 01:54:33;;;;;;;;;;;;;;;;;;1875835;28;7005;-64
2021/11/21 01:55:31;;;;;;;;;;;;;;;;;;1876157;28;7002;-64
2021/11/21 01:56:29;;;;;;;;;;;;;;;;;;1875780;28;7469;-63
2021/11/21 01:57:26;;;;;;;;;;;;;;;;;;1875684;28;7035;-65
2021/11/21 01:58:24;;;;;;;;;;;;;;;;;;1879666;28;7031;-65
2021/11/21 01:59:22;;;;;;;;;;;;;;;;;;1877043;28;7104;-64
2021/11/21 02:00:19;;;;;;;;;;;;;;;;;;1882993;28;7002;-65
2021/11/21 02:01:17;;;;;;;;;;;;;;;;;;1877102;28;8083;-64
2021/11/21 02:02:15;;;;;;;;;;;;;;;;;;1875785;28;7166;-66
2021/11/21 02:03:13;;;;;;;;;;;;;;;;;;1868966;29;7178;-64
2021/11/21 02:04:10;;;;;;;;;;;;;;;;;;1882233;28;7006;-64
2021/11/21 02:05:08;;;;;;;;;;;;;;;;;;1883340;28;7096;-64
2021/11/21 02:06:06;;;;;;;;;;;;;;;;;;1882846;28;8107;-66
2021/11/21 02:07:03;;;;;;;;;;;;;;;;;;1875152;28;7196;-64
2021/11/21 02:08:03;;;;;;;;;;;;;;;;;;1875463;28;7093;-65
2021/11/21 02:09:03;;;;;;;;;;;;;;;;;;1882738;28;7101;-65
2021/11/21 02:10:00;;;;;;;;;;;;;;;;;;1876046;28;7317;-64
2021/11/21 02:10:59;;;;;;;;;;;;;;;;;;1875521;28;7157;-66
2021/11/21 02:11:57;;;;;;;;;;;;;;;;;;1875864;28;7129;-65
2021/11/21 02:12:55;;;;;;;;;;;;;;;;;;1875154;28;7013;-65
2021/11/21 02:13:53;;;;;;;;;;;;;;;;;;1875806;28;7018;-65
2021/11/21 02:14:50;;;;;;;;;;;;;;;;;;1875775;28;7035;-65
2021/11/21 02:15:48;;;;;;;;;;;;;;;;;;1875630;28;7121;-65
2021/11/21 02:16:47;;;;;;;;;;;;;;;;;;1875765;28;7101;-66
2021/11/21 02:17:44;;;;;;;;;;;;;;;;;;1875759;28;7143;-65
2021/11/21 02:18:45;;;;;;;;;;;;;;;;;;1875119;28;7006;-65
2021/11/21 02:19:43;;;;;;;;;;;;;;;;;;1875229;28;7010;-65
2021/11/21 02:20:40;;;;;;;;;;;;;;;;;;1872363;28;7013;-65
2021/11/21 02:21:38;;;;;;;;;;;;;;;;;;1875973;28;7097;-65
2021/11/21 02:22:40;;;;;;;;;;;;;;;;;;1876372;28;7767;-65
2021/11/21 02:23:38;;;;;;;;;;;;;;;;;;1882050;28;7870;-64
2021/11/21 02:24:35;;;;;;;;;;;;;;;;;;1882859;28;7043;-65
2021/11/21 02:25:34;;;;;;;;;;;;;;;;;;1882671;28;7002;-65
2021/11/21 02:26:31;;;;;;;;;;;;;;;;;;1878101;28;7018;-64
2021/11/21 02:27:30;;;;;;;;;;;;;;;;;;1875926;28;7010;-65
2021/11/21 02:28:28;;;;;;;;;;;;;;;;;;1876441;28;7106;-65
2021/11/21 02:29:27;;;;;;;;;;;;;;;;;;1875664;28;7006;-65
2021/11/21 02:30:24;;;;;;;;;;;;;;;;;;1877265;28;7021;-65
2021/11/21 02:31:22;;;;;;;;;;;;;;;;;;1881956;28;7010;-65
2021/11/21 02:32:20;;;;;;;;;;;;;;;;;;1879534;28;8646;-64
2021/11/21 02:33:20;;;;;;;;;;;;;;;;;;1874549;28;7037;-64
2021/11/21 02:34:17;;;;;;;;;;;;;;;;;;1875166;28;7092;-66
2021/11/21 02:35:15;;;;;;;;;;;;;;;;;;1875652;28;7010;-64
2021/11/21 02:36:12;;;;;;;;;;;;;;;;;;1868568;29;7010;-66
2021/11/21 02:37:10;;;;;;;;;;;;;;;;;;1874881;28;7144;-64
2021/11/21 02:38:09;;;;;;;;;;;;;;;;;;1878485;28;7067;-65
2021/11/21 02:39:06;;;;;;;;;;;;;;;;;;1882678;28;7153;-65
2021/11/21 02:40:04;;;;;;;;;;;;;;;;;;1877561;28;7006;-64
2021/11/21 02:41:03;;;;;;;;;;;;;;;;;;1875114;28;7006;-64
2021/11/21 02:42:01;;;;;;;;;;;;;;;;;;1875492;28;7180;-64
2021/11/21 02:42:59;;;;;;;;;;;;;;;;;;1875397;28;7110;-64
2021/11/21 02:43:57;;;;;;;;;;;;;;;;;;1875047;28;7113;-65
2021/11/21 02:44:55;;;;;;;;;;;;;;;;;;1874994;28;7093;-64
2021/11/21 02:45:53;;;;;;;;;;;;;;;;;;1875461;28;7376;-64
2021/11/21 02:46:50;;;;;;;;;;;;;;;;;;1875567;28;8036;-64
2021/11/21 02:47:48;;;;;;;;;;;;;;;;;;1879529;28;8048;-65
2021/11/21 02:48:46;;;;;;;;;;;;;;;;;;1875356;28;7321;-66
2021/11/21 02:49:43;;;;;;;;;;;;;;;;;;1874769;29;7029;-65
2021/11/21 02:50:41;;;;;;;;;;;;;;;;;;1874780;29;7093;-63
2021/11/21 02:51:38;;;;;;;;;;;;;;;;;;1871771;28;8126;-65
2021/11/21 02:52:36;;;;;;;;;;;;;;;;;;1875751;28;7043;-64
2021/11/21 02:53:34;;;;;;;;;;;;;;;;;;1875652;28;7112;-64
2021/11/21 02:54:31;;;;;;;;;;;;;;;;;;1875601;28;7017;-65
2021/11/21 02:55:31;;;;;;;;;;;;;;;;;;1875696;28;7010;-65
2021/11/21 02:56:29;;;;;;;;;;;;;;;;;;1883114;28;7018;-65
2021/11/21 02:57:26;;;;;;;;;;;;;;;;;;1877194;28;7324;-65
2021/11/21 02:58:25;;;;;;;;;;;;;;;;;;1874511;28;8112;-64
2021/11/21 02:59:26;;;;;;;;;;;;;;;;;;1875870;28;7134;-65
2021/11/21 03:00:24;;;;;;;;;;;;;;;;;;1875488;28;7100;-64
2021/11/21 03:01:24;;;;;;;;;;;;;;;;;;1875570;28;7051;-64
2021/11/21 03:02:22;;;;;;;;;;;;;;;;;;1875201;28;7575;-65
2021/11/21 03:03:20;;;;;;;;;;;;;;;;;;1875566;28;7116;-65
2021/11/21 03:04:21;;;;;;;;;;;;;;;;;;1875999;28;7380;-65
2021/11/21 03:05:19;;;;;;;;;;;;;;;;;;1875662;28;7088;-65
2021/11/21 03:06:17;;;;;;;;;;;;;;;;;;1876878;28;7043;-64
2021/11/21 03:07:14;;;;;;;;;;;;;;;;;;1868434;29;7031;-65
2021/11/21 03:08:12;;;;;;;;;;;;;;;;;;1875252;28;7014;-65
2021/11/21 03:09:09;;;;;;;;;;;;;;;;;;1876119;28;7014;-65
2021/11/21 03:10:08;;;;;;;;;;;;;;;;;;1882882;28;7006;-65
2021/11/21 03:11:16;;;;;;;;;;;;;;;;;;1882630;28;7006;-65
2021/11/21 03:12:13;;;;;;;;;;;;;;;;;;1882008;28;7054;-65
2021/11/21 03:13:11;;;;;;;;;;;;;;;;;;1875975;28;7022;-65
2021/11/21 03:14:08;;;;;;;;;;;;;;;;;;1875904;28;7010;-65
2021/11/21 03:15:06;;;;;;;;;;;;;;;;;;1875380;28;7785;-65
2021/11/21 03:16:04;;;;;;;;;;;;;;;;;;1875417;28;7313;-64
2021/11/21 03:17:01;;;;;;;;;;;;;;;;;;1876396;28;7093;-65
2021/11/21 03:18:00;;;;;;;;;;;;;;;;;;1883009;28;7010;-65
2021/11/21 03:18:57;;;;;;;;;;;;;;;;;;1881001;28;7009;-65
2021/11/21 03:19:55;;;;;;;;;;;;;;;;;;1876140;28;7097;-64
2021/11/21 03:20:52;;;;;;;;;;;;;;;;;;1875427;28;7034;-65
2021/11/21 03:21:50;;;;;;;;;;;;;;;;;;1875688;28;7109;-65
2021/11/21 03:22:47;;;;;;;;;;;;;;;;;;1875437;28;7006;-64
2021/11/21 03:23:45;;;;;;;;;;;;;;;;;;1877372;28;7039;-65
2021/11/21 03:24:45;;;;;;;;;;;;;;;;;;1882743;28;7005;-64
2021/11/21 03:25:42;;;;;;;;;;;;;;;;;;1882719;28;8193;-65
2021/11/21 03:26:40;;;;;;;;;;;;;;;;;;1882853;28;8048;-65
2021/11/21 03:27:38;;;;;;;;;;;;;;;;;;1882780;28;7109;-65
2021/11/21 03:28:36;;;;;;;;;;;;;;;;;;1877651;28;7096;-65
2021/11/21 03:29:37;;;;;;;;;;;;;;;;;;1882813;28;7005;-66
2021/11/21 03:30:35;;;;;;;;;;;;;;;;;;1881233;28;8095;-65
2021/11/21 03:31:34;;;;;;;;;;;;;;;;;;1881912;28;7075;-64
2021/11/21 03:32:31;;;;;;;;;;;;;;;;;;1882039;28;7010;-64
2021/11/21 03:33:29;;;;;;;;;;;;;;;;;;1881638;28;8019;-65
2021/11/21 03:34:29;;;;;;;;;;;;;;;;;;1882542;28;7272;-65
2021/11/21 03:35:26;;;;;;;;;;;;;;;;;;1882123;28;8039;-65
2021/11/21 03:36:23;;;;;;;;;;;;;;;;;;1880627;28;8794;-65
2021/11/21 03:37:21;;;;;;;;;;;;;;;;;;1881844;28;7018;-64
2021/11/21 03:38:18;;;;;;;;;;;;;;;;;;1882012;28;8099;-64
2021/11/21 03:39:16;;;;;;;;;;;;;;;;;;1881977;28;7014;-65
2021/11/21 03:40:16;;;;;;;;;;;;;;;;;;1882276;28;7068;-64
2021/11/21 03:41:13;;;;;;;;;;;;;;;;;;1882247;28;7038;-64
2021/11/21 03:42:10;;;;;;;;;;;;;;;;;;1882273;28;7134;-64
2021/11/21 03:43:08;;;;;;;;;;;;;;;;;;1882494;28;7005;-65
2021/11/21 03:44:07;;;;;;;;;;;;;;;;;;1882062;28;7014;-63
2021/11/21 03:45:05;;;;;;;;;;;;;;;;;;1880854;28;9628;-64
2021/11/21 03:46:03;;;;;;;;;;;;;;;;;;1882597;28;7100;-65
2021/11/21 03:47:00;;;;;;;;;;;;;;;;;;1882473;28;7006;-65
2021/11/21 03:47:58;;;;;;;;;;;;;;;;;;1882453;28;7377;-65
2021/11/21 03:48:56;;;;;;;;;;;;;;;;;;1880801;28;7050;-64
2021/11/21 03:49:53;;;;;;;;;;;;;;;;;;1882234;28;7056;-65
2021/11/21 03:50:51;;;;;;;;;;;;;;;;;;1881872;28;7046;-64
2021/11/21 03:51:49;;;;;;;;;;;;;;;;;;1881944;28;7127;-65
2021/11/21 03:52:47;;;;;;;;;;;;;;;;;;1879801;28;7093;-65
2021/11/21 03:53:45;;;;;;;;;;;;;;;;;;1882833;28;7089;-65
2021/11/21 03:54:43;;;;;;;;;;;;;;;;;;1882918;28;7018;-65
2021/11/21 03:55:40;;;;;;;;;;;;;;;;;;1883269;28;8038;-65
2021/11/21 03:56:38;;;;;;;;;;;;;;;;;;1884015;28;8071;-63
2021/11/21 03:57:35;;;;;;;;;;;;;;;;;;1884024;28;7014;-65
2021/11/21 03:58:33;;;;;;;;;;;;;;;;;;1876029;28;7141;-65
2021/11/21 03:59:30;;;;;;;;;;;;;;;;;;1872687;28;7010;-65
2021/11/21 04:00:28;;;;;;;;;;;;;;;;;;1876203;28;7093;-64
2021/11/21 04:01:25;;;;;;;;;;;;;;;;;;1884024;28;7033;-65
2021/11/21 04:02:23;;;;;;;;;;;;;;;;;;1883921;28;7006;-65
2021/11/21 04:03:21;;;;;;;;;;;;;;;;;;1884407;28;7157;-65
2021/11/21 04:04:18;;;;;;;;;;;;;;;;;;1883879;28;7010;-65
2021/11/21 04:05:16;;;;;;;;;;;;;;;;;;1883700;28;7049;-65
2021/11/21 04:06:14;;;;;;;;;;;;;;;;;;1882967;28;7089;-65
2021/11/21 04:07:11;;;;;;;;;;;;;;;;;;1881899;28;7093;-64
2021/11/21 04:08:09;;;;;;;;;;;;;;;;;;1883992;28;7026;-65
2021/11/21 04:09:07;;;;;;;;;;;;;;;;;;1884242;28;7005;-64
2021/11/21 04:10:04;;;;;;;;;;;;;;;;;;1884542;28;7002;-65
2021/11/21 04:11:02;;;;;;;;;;;;;;;;;;1883389;28;8024;-65
2021/11/21 04:12:00;;;;;;;;;;;;;;;;;;1884064;28;8060;-64
2021/11/21 04:12:58;;;;;;;;;;;;;;;;;;1883130;28;7111;-64
2021/11/21 04:13:55;;;;;;;;;;;;;;;;;;1883927;28;7191;-65
2021/11/21 04:14:52;;;;;;;;;;;;;;;;;;1883787;28;7006;-65
2021/11/21 04:15:50;;;;;;;;;;;;;;;;;;1884043;28;7271;-65
2021/11/21 04:16:48;;;;;;;;;;;;;;;;;;1884125;28;7301;-64
2021/11/21 04:17:45;;;;;;;;;;;;;;;;;;1883906;28;7217;-65
2021/11/21 04:18:43;;;;;;;;;;;;;;;;;;1883913;28;7360;-65
2021/11/21 04:19:40;;;;;;;;;;;;;;;;;;1883850;28;7014;-65
2021/11/21 04:20:38;;;;;;;;;;;;;;;;;;1882482;28;7018;-65
2021/11/21 04:21:36;;;;;;;;;;;;;;;;;;1883847;28;7097;-64
2021/11/21 04:22:33;;;;;;;;;;;;;;;;;;1884025;28;8033;-65
2021/11/21 04:23:31;;;;;;;;;;;;;;;;;;1883922;28;7114;-65
2021/11/21 04:24:29;;;;;;;;;;;;;;;;;;1883712;28;7092;-65
2021/11/21 04:25:26;;;;;;;;;;;;;;;;;;1883532;28;7107;-66
2021/11/21 04:26:24;;;;;;;;;;;;;;;;;;1883611;28;9025;-65
2021/11/21 04:27:22;;;;;;;;;;;;;;;;;;1882607;28;8103;-66
2021/11/21 04:28:19;;;;;;;;;;;;;;;;;;1883192;28;8120;-65
2021/11/21 04:29:17;;;;;;;;;;;;;;;;;;1882741;28;7043;-65
2021/11/21 04:30:16;;;;;;;;;;;;;;;;;;1883849;28;7042;-64
2021/11/21 04:31:13;;;;;;;;;;;;;;;;;;1883712;28;7097;-64
2021/11/21 04:32:11;;;;;;;;;;;;;;;;;;1883477;28;7021;-66
2021/11/21 04:33:08;;;;;;;;;;;;;;;;;;1883439;28;7046;-66
2021/11/21 04:34:06;;;;;;;;;;;;;;;;;;1883478;28;7143;-66
2021/11/21 04:35:06;;;;;;;;;;;;;;;;;;1883075;28;7034;-65
2021/11/21 04:36:04;;;;;;;;;;;;;;;;;;1883339;28;7305;-66
2021/11/21 04:37:02;;;;;;;;;;;;;;;;;;1883438;28;8027;-65
2021/11/21 04:37:59;;;;;;;;;;;;;;;;;;1883620;28;7096;-66
2021/11/21 04:38:56;;;;;;;;;;;;;;;;;;1883374;28;7018;-64
2021/11/21 04:39:54;;;;;;;;;;;;;;;;;;1883450;28;7121;-66
2021/11/21 04:40:52;;;;;;;;;;;;;;;;;;1882931;28;7058;-64
2021/11/21 04:41:50;;;;;;;;;;;;;;;;;;1883053;28;7034;-65
2021/11/21 04:42:48;;;;;;;;;;;;;;;;;;1882479;28;7156;-68
2021/11/21 04:43:46;;;;;;;;;;;;;;;;;;1882501;28;7093;-65
2021/11/21 04:44:44;;;;;;;;;;;;;;;;;;1879933;28;7022;-66
2021/11/21 04:45:41;;;;;;;;;;;;;;;;;;1883507;28;7379;-65
2021/11/21 04:46:40;;;;;;;;;;;;;;;;;;1883633;28;7066;-65
2021/11/21 04:47:38;;;;;;;;;;;;;;;;;;1883650;28;7313;-66
2021/11/21 04:48:35;;;;;;;;;;;;;;;;;;1882536;28;7014;-65
2021/11/21 04:49:33;;;;;;;;;;;;;;;;;;1882210;28;7092;-65
2021/11/21 04:50:31;;;;;;;;;;;;;;;;;;1883376;28;7034;-66
2021/11/21 04:51:28;;;;;;;;;;;;;;;;;;1884290;28;7002;-65
2021/11/21 04:52:26;;;;;;;;;;;;;;;;;;1883379;28;8056;-65
2021/11/21 04:53:23;;;;;;;;;;;;;;;;;;1883424;28;7093;-65
2021/11/21 04:54:22;;;;;;;;;;;;;;;;;;1883305;28;7042;-64
2021/11/21 04:55:20;;;;;;;;;;;;;;;;;;1883303;28;7144;-66
2021/11/21 04:56:18;;;;;;;;;;;;;;;;;;1883443;28;7034;-65
2021/11/21 04:57:16;;;;;;;;;;;;;;;;;;1883669;28;7092;-65
2021/11/21 04:58:14;;;;;;;;;;;;;;;;;;1884031;28;7010;-65
2021/11/21 04:59:15;;;;;;;;;;;;;;;;;;1883697;28;7125;-66
2021/11/21 05:00:16;;;;;;;;;;;;;;;;;;1883344;28;7047;-65
2021/11/21 05:01:13;;;;;;;;;;;;;;;;;;1883538;28;7014;-67
2021/11/21 05:02:11;;;;;;;;;;;;;;;;;;1883494;28;7054;-66
2021/11/21 05:03:08;;;;;;;;;;;;;;;;;;1882826;28;7096;-66
2021/11/21 05:04:06;;;;;;;;;;;;;;;;;;1882887;28;8031;-65
2021/11/21 05:05:04;;;;;;;;;;;;;;;;;;1883198;28;7199;-66
2021/11/21 05:06:01;;;;;;;;;;;;;;;;;;1883895;28;8142;-65
2021/11/21 05:06:59;;;;;;;;;;;;;;;;;;1883598;28;7109;-65
2021/11/21 05:07:56;;;;;;;;;;;;;;;;;;1883488;28;7321;-66
2021/11/21 05:08:53;;;;;;;;;;;;;;;;;;1883416;28;7013;-66
2021/11/21 05:09:51;;;;;;;;;;;;;;;;;;1883674;28;7540;-66
2021/11/21 05:10:49;;;;;;;;;;;;;;;;;;1883366;28;7145;-65
2021/11/21 05:11:46;;;;;;;;;;;;;;;;;;1883688;28;7013;-66
2021/11/21 05:12:45;;;;;;;;;;;;;;;;;;1882423;28;7100;-65
2021/11/21 05:13:42;;;;;;;;;;;;;;;;;;1883578;28;7010;-65
2021/11/21 05:14:39;;;;;;;;;;;;;;;;;;1883902;28;7025;-65
2021/11/21 05:15:37;;;;;;;;;;;;;;;;;;1883457;28;7093;-66
2021/11/21 05:16:35;;;;;;;;;;;;;;;;;;1882222;28;7009;-66
2021/11/21 05:17:32;;;;;;;;;;;;;;;;;;1883451;28;7009;-65
2021/11/21 05:18:30;;;;;;;;;;;;;;;;;;1883865;28;7096;-65
2021/11/21 05:19:27;;;;;;;;;;;;;;;;;;1875550;28;7137;-66
2021/11/21 05:20:29;;;;;;;;;;;;;;;;;;1876007;28;7189;-66
2021/11/21 05:21:26;;;;;;;;;;;;;;;;;;1882776;28;7014;-66
2021/11/21 05:22:24;;;;;;;;;;;;;;;;;;1884042;28;7017;-65
2021/11/21 05:23:21;;;;;;;;;;;;;;;;;;1883735;28;7121;-65
2021/11/21 05:24:23;;;;;;;;;;;;;;;;;;1883304;28;7375;-65
2021/11/21 05:25:21;;;;;;;;;;;;;;;;;;1883618;28;7046;-65
2021/11/21 05:26:20;;;;;;;;;;;;;;;;;;1883554;28;8143;-66
2021/11/21 05:27:18;;;;;;;;;;;;;;;;;;1883055;28;7010;-65
2021/11/21 05:28:16;;;;;;;;;;;;;;;;;;1883785;28;7042;-66
2021/11/21 05:29:13;;;;;;;;;;;;;;;;;;1883217;28;7093;-65
2021/11/21 05:30:13;;;;;;;;;;;;;;;;;;1883144;28;7014;-66
2021/11/21 05:31:10;;;;;;;;;;;;;;;;;;1882746;28;7453;-65
2021/11/21 05:32:08;;;;;;;;;;;;;;;;;;1883029;28;7148;-65
2021/11/21 05:33:05;;;;;;;;;;;;;;;;;;1882977;28;8068;-66
2021/11/21 05:34:03;;;;;;;;;;;;;;;;;;1881717;28;7006;-66
2021/11/21 05:35:00;;;;;;;;;;;;;;;;;;1883324;28;7125;-66
2021/11/21 05:35:58;;;;;;;;;;;;;;;;;;1882975;28;7105;-66
2021/11/21 05:36:55;;;;;;;;;;;;;;;;;;1883079;28;7436;-66
2021/11/21 05:37:54;;;;;;;;;;;;;;;;;;1882972;28;7089;-66
2021/11/21 05:38:51;;;;;;;;;;;;;;;;;;1882813;28;7013;-66
2021/11/21 05:39:49;;;;;;;;;;;;;;;;;;1882571;28;8070;-66
2021/11/21 05:40:46;;;;;;;;;;;;;;;;;;1882781;28;7149;-65
2021/11/21 05:41:44;;;;;;;;;;;;;;;;;;1883370;28;7009;-66
2021/11/21 05:42:41;;;;;;;;;;;;;;;;;;1882583;28;7331;-66
2021/11/21 05:43:38;;;;;;;;;;;;;;;;;;1883039;28;7134;-65
2021/11/21 05:44:36;;;;;;;;;;;;;;;;;;1883006;28;7005;-65
2021/11/21 05:45:33;;;;;;;;;;;;;;;;;;1882780;28;7010;-66
2021/11/21 05:46:31;;;;;;;;;;;;;;;;;;1883025;28;7021;-65
2021/11/21 05:47:28;;;;;;;;;;;;;;;;;;1883176;28;7010;-65
2021/11/21 05:48:26;;;;;;;;;;;;;;;;;;1882648;28;7034;-66
2021/11/21 05:49:23;;;;;;;;;;;;;;;;;;1882648;28;7010;-65
2021/11/21 05:50:21;;;;;;;;;;;;;;;;;;1883181;28;7014;-65
2021/11/21 05:51:18;;;;;;;;;;;;;;;;;;1883311;28;7650;-64
2021/11/21 05:52:16;;;;;;;;;;;;;;;;;;1881844;28;7125;-66
2021/11/21 05:53:13;;;;;;;;;;;;;;;;;;1883048;28;7408;-66
2021/11/21 05:54:11;;;;;;;;;;;;;;;;;;1883351;28;7054;-65
2021/11/21 05:55:08;;;;;;;;;;;;;;;;;;1883952;28;7010;-66
2021/11/21 05:56:06;;;;;;;;;;;;;;;;;;1883739;28;8039;-65
2021/11/21 05:57:04;;;;;;;;;;;;;;;;;;1883058;28;7097;-65
2021/11/21 05:58:01;;;;;;;;;;;;;;;;;;1883157;28;7088;-66
2021/11/21 05:58:59;;;;;;;;;;;;;;;;;;1883188;28;7134;-66
2021/11/21 05:59:56;;;;;;;;;;;;;;;;;;1883133;28;7014;-65
2021/11/21 06:00:54;;;;;;;;;;;;;;;;;;1882434;28;8097;-66
2021/11/21 06:01:51;;;;;;;;;;;;;;;;;;1883077;28;8028;-65
2021/11/21 06:02:50;;;;;;;;;;;;;;;;;;1880870;28;8031;-65
2021/11/21 06:03:50;;;;;;;;;;;;;;;;;;1883141;28;7014;-64
2021/11/21 06:04:47;;;;;;;;;;;;;;;;;;1883646;28;7113;-65
2021/11/21 06:05:45;;;;;;;;;;;;;;;;;;1883097;28;7105;-66
2021/11/21 06:06:42;;;;;;;;;;;;;;;;;;1882866;28;7152;-66
2021/11/21 06:07:40;;;;;;;;;;;;;;;;;;1882097;28;7038;-65
2021/11/21 06:08:38;;;;;;;;;;;;;;;;;;1883303;28;7106;-65
2021/11/21 06:09:35;;;;;;;;;;;;;;;;;;1883389;28;7035;-65
2021/11/21 06:10:33;;;;;;;;;;;;;;;;;;1882760;28;7093;-65
2021/11/21 06:11:31;;;;;;;;;;;;;;;;;;1882969;28;7131;-65
2021/11/21 06:12:28;;;;;;;;;;;;;;;;;;1882986;28;7096;-65
2021/11/21 06:13:27;;;;;;;;;;;;;;;;;;1882759;28;7013;-65
2021/11/21 06:14:24;;;;;;;;;;;;;;;;;;1881894;28;7245;-66
2021/11/21 06:15:22;;;;;;;;;;;;;;;;;;1875064;28;7303;-66
2021/11/21 06:16:19;;;;;;;;;;;;;;;;;;1876104;28;7010;-65
2021/11/21 06:17:17;;;;;;;;;;;;;;;;;;1875414;28;7005;-65
2021/11/21 06:18:15;;;;;;;;;;;;;;;;;;1875771;28;7682;-65
2021/11/21 06:19:12;;;;;;;;;;;;;;;;;;1882551;28;7156;-65
2021/11/21 06:20:10;;;;;;;;;;;;;;;;;;1879512;28;8063;-65
2021/11/21 06:21:08;;;;;;;;;;;;;;;;;;1876130;28;7010;-66
2021/11/21 06:22:06;;;;;;;;;;;;;;;;;;1880692;28;8166;-66
2021/11/21 06:23:04;;;;;;;;;;;;;;;;;;1883782;28;7324;-66
2021/11/21 06:24:01;;;;;;;;;;;;;;;;;;1883181;28;7100;-65
2021/11/21 06:24:59;;;;;;;;;;;;;;;;;;1883442;28;7667;-65
2021/11/21 06:25:56;;;;;;;;;;;;;;;;;;1883082;28;7129;-66
2021/11/21 06:26:54;;;;;;;;;;;;;;;;;;1882995;28;7006;-65
2021/11/21 06:27:51;;;;;;;;;;;;;;;;;;1883396;28;7017;-65
2021/11/21 06:28:49;;;;;;;;;;;;;;;;;;1882657;28;7014;-66
2021/11/21 06:29:46;;;;;;;;;;;;;;;;;;1883500;28;7089;-64
2021/11/21 06:30:44;;;;;;;;;;;;;;;;;;1882679;28;7030;-65
2021/11/21 06:31:41;;;;;;;;;;;;;;;;;;1882723;28;7113;-66
2021/11/21 06:32:39;;;;;;;;;;;;;;;;;;1882497;28;7014;-66
2021/11/21 06:33:36;;;;;;;;;;;;;;;;;;1882800;28;7089;-65
2021/11/21 06:34:34;;;;;;;;;;;;;;;;;;1882676;28;7005;-65
2021/11/21 06:35:31;;;;;;;;;;;;;;;;;;1882781;28;7097;-66
2021/11/21 06:36:29;;;;;;;;;;;;;;;;;;1882619;28;7002;-66
2021/11/21 06:37:27;;;;;;;;;;;;;;;;;;1882782;28;7399;-65
2021/11/21 06:38:24;;;;;;;;;;;;;;;;;;1882135;28;7093;-66
2021/11/21 06:39:22;;;;;;;;;;;;;;;;;;1882738;28;7085;-66
2021/11/21 06:40:20;;;;;;;;;;;;;;;;;;1882557;28;7033;-65
2021/11/21 06:41:21;;;;;;;;;;;;;;;;;;1882425;28;8213;-66
2021/11/21 06:42:18;;;;;;;;;;;;;;;;;;1882731;28;7299;-66